Time;durP1;ratioP1;P1;durP2;ratioP2;P2;SDS_P1;SDS_P2;PMS_P1;PMS_P2;Temp;Humidity;BMP_temperature;BMP_pressure;BME280_temperature;BME280_humidity;BME280_pressure;Samples;Min_cycle;Max_cycle;Signal;HPM_P1;HPM_P2
2022/07/11 00:00:51;;;;;;;8.50;3.17;;;19.60;99.90;;;;;;7339276;19;109173;-84
2022/07/11 00:03:19;;;;;;;4.88;3.13;;;19.60;99.90;;;;;;7343604;19;108362;-85
2022/07/11 00:05:46;;;;;;;6.10;3.42;;;19.60;99.90;;;;;;7338146;19;108684;-84
2022/07/11 00:08:13;;;;;;;5.70;3.05;;;19.50;99.90;;;;;;7336848;19;107993;-85
2022/07/11 00:10:41;;;;;;;5.70;3.15;;;19.50;99.90;;;;;;7335963;19;109632;-84
2022/07/11 00:13:08;;;;;;;5.60;3.00;;;19.40;99.90;;;;;;7335934;19;109216;-84
2022/07/11 00:15:35;;;;;;;4.80;3.67;;;19.40;99.90;;;;;;7339998;19;107650;-85
2022/07/11 00:18:02;;;;;;;4.80;4.30;;;19.30;99.90;;;;;;7336540;19;107643;-85
2022/07/11 00:20:29;;;;;;;8.63;5.00;;;19.20;99.90;;;;;;7336773;19;109813;-85
2022/07/11 00:22:56;;;;;;;10.25;4.82;;;18.90;99.90;;;;;;7336152;19;107916;-84
2022/07/11 00:25:23;;;;;;;7.80;4.88;;;18.70;99.90;;;;;;7340193;19;110297;-84
2022/07/11 00:27:50;;;;;;;5.88;4.00;;;18.60;99.90;;;;;;7337959;19;107893;-84
2022/07/11 00:30:18;;;;;;;6.22;4.05;;;18.60;99.90;;;;;;7337052;19;112165;-84
2022/07/11 00:32:45;;;;;;;7.13;3.63;;;18.60;99.90;;;;;;7334717;19;111751;-84
2022/07/11 00:35:12;;;;;;;4.00;3.22;;;18.70;99.90;;;;;;7338513;19;110927;-84
2022/07/11 00:37:39;;;;;;;5.90;3.67;;;18.80;99.90;;;;;;7337270;19;110260;-84
2022/07/11 00:40:07;;;;;;;6.68;3.53;;;18.80;99.90;;;;;;7337267;19;109024;-84
2022/07/11 00:42:34;;;;;;;8.10;3.90;;;18.80;99.90;;;;;;7338186;19;108276;-84
2022/07/11 00:45:01;;;;;;;4.00;3.60;;;18.80;99.90;;;;;;7336464;19;108477;-84
2022/07/11 00:47:28;;;;;;;10.27;4.50;;;18.80;99.90;;;;;;7339038;19;108897;-84
2022/07/11 00:49:55;;;;;;;6.20;3.70;;;18.80;99.90;;;;;;7335352;19;108135;-85
2022/07/11 00:52:23;;;;;;;9.63;3.88;;;18.70;99.90;;;;;;7332488;19;109333;-84
2022/07/11 00:54:52;;;;;;;9.35;4.43;;;18.70;99.90;;;;;;7336662;19;108354;-85
2022/07/11 00:57:19;;;;;;;11.68;4.57;;;18.50;99.90;;;;;;7334610;19;108244;-84
2022/07/11 00:59:46;;;;;;;8.65;4.65;;;18.20;99.90;;;;;;7335735;19;112471;-84
2022/07/11 01:02:17;;;;;;;8.63;4.78;;;17.90;99.90;;;;;;7337183;19;108936;-84
2022/07/11 01:04:45;;;;;;;5.50;4.40;;;17.80;99.90;;;;;;7337384;19;108059;-84
2022/07/11 01:07:13;;;;;;;6.22;3.70;;;17.70;99.90;;;;;;7343762;19;108643;-84
2022/07/11 01:09:40;;;;;;;5.05;3.42;;;17.80;99.90;;;;;;7347336;19;110331;-84
2022/07/11 01:12:08;;;;;;;5.43;3.80;;;17.90;99.90;;;;;;7341189;19;108694;-84
2022/07/11 01:14:36;;;;;;;4.70;3.80;;;18.00;99.90;;;;;;7342305;19;108263;-84
2022/07/11 01:17:03;;;;;;;4.18;3.60;;;18.10;99.90;;;;;;7343038;19;108011;-84
2022/07/11 01:19:31;;;;;;;7.40;4.13;;;18.10;99.90;;;;;;7342945;19;108777;-84
2022/07/11 01:22:03;;;;;;;5.00;3.55;;;18.10;99.90;;;;;;7343672;19;107834;-84
2022/07/11 01:24:31;;;;;;;7.60;4.13;;;18.10;99.90;;;;;;7340439;19;107870;-85
2022/07/11 01:26:58;;;;;;;6.35;5.15;;;18.00;99.90;;;;;;7343057;19;108638;-84
2022/07/11 01:29:26;;;;;;;6.40;4.18;;;17.80;99.90;;;;;;7344206;19;107995;-84
2022/07/11 01:31:53;;;;;;;6.97;4.10;;;17.70;99.90;;;;;;7339828;19;109034;-84
2022/07/11 01:34:20;;;;;;;5.60;4.18;;;17.70;99.90;;;;;;7338168;19;108830;-86
2022/07/11 01:36:47;;;;;;;5.60;3.90;;;17.70;99.90;;;;;;7343430;19;108259;-83
2022/07/11 01:39:14;;;;;;;5.35;4.10;;;17.80;99.90;;;;;;7343603;19;108484;-85
2022/07/11 01:41:41;;;;;;;4.65;4.00;;;17.70;99.90;;;;;;7344113;19;109307;-84
2022/07/11 01:44:08;;;;;;;4.43;3.70;;;17.60;99.90;;;;;;7343300;19;109958;-85
2022/07/11 01:46:35;;;;;;;5.10;3.50;;;17.60;99.90;;;;;;7341380;19;109246;-84
2022/07/11 01:49:02;;;;;;;4.72;4.20;;;17.70;99.90;;;;;;7341468;19;107709;-85
2022/07/11 01:51:30;;;;;;;8.10;3.90;;;17.70;99.90;;;;;;7348550;19;107926;-84
2022/07/11 01:53:57;;;;;;;4.72;3.97;;;17.50;99.90;;;;;;7337433;19;107793;-84
2022/07/11 01:56:27;;;;;;;6.05;4.32;;;17.50;99.90;;;;;;7343637;19;108149;-84
2022/07/11 01:58:59;;;;;;;4.60;4.10;;;17.50;99.90;;;;;;7337370;19;112881;-84
2022/07/11 02:01:26;;;;;;;4.80;4.05;;;17.50;99.90;;;;;;7343658;19;110228;-83
2022/07/11 02:03:55;;;;;;;5.78;4.30;;;17.50;99.90;;;;;;7340444;19;107620;-84
2022/07/11 02:06:22;;;;;;;34.97;4.68;;;17.50;99.90;;;;;;7340569;19;108363;-84
2022/07/11 02:08:49;;;;;;;7.30;4.53;;;17.40;99.90;;;;;;7339800;19;107599;-84
2022/07/11 02:11:16;;;;;;;5.55;4.32;;;17.20;99.90;;;;;;7341349;19;108447;-84
2022/07/11 02:13:43;;;;;;;6.65;4.72;;;17.10;99.90;;;;;;7346134;19;109385;-84
2022/07/11 02:16:11;;;;;;;5.13;4.65;;;16.90;99.90;;;;;;7341288;19;108587;-84
2022/07/11 02:18:38;;;;;;;6.00;4.60;;;16.90;99.90;;;;;;7340811;19;110845;-84
2022/07/11 02:21:05;;;;;;;7.70;5.10;;;17.00;99.90;;;;;;7342048;19;112318;-84
2022/07/11 02:23:32;;;;;;;9.38;5.25;;;17.00;99.90;;;;;;7341773;19;108183;-84
2022/07/11 02:25:59;;;;;;;9.98;5.05;;;16.90;99.90;;;;;;7340366;19;111845;-83
2022/07/11 02:28:27;;;;;;;9.02;5.82;;;16.70;99.90;;;;;;7342547;19;110932;-84
2022/07/11 02:30:54;;;;;;;9.40;6.65;;;16.60;99.90;;;;;;7339743;19;107676;-84
2022/07/11 02:33:21;;;;;;;7.43;6.25;;;16.60;99.90;;;;;;7339628;19;110038;-83
2022/07/11 02:35:48;;;;;;;7.60;6.50;;;16.60;99.90;;;;;;7347444;19;110604;-84
2022/07/11 02:38:16;;;;;;;7.15;6.10;;;16.80;99.90;;;;;;7340572;19;109753;-84
2022/07/11 02:40:47;;;;;;;9.25;6.15;;;16.80;99.90;;;;;;7341348;19;108232;-83
2022/07/11 02:43:15;;;;;;;8.02;5.63;;;16.90;99.90;;;;;;7338626;19;108549;-84
2022/07/11 02:45:43;;;;;;;9.60;7.70;;;16.90;99.90;;;;;;7340192;19;109524;-84
2022/07/11 02:48:10;;;;;;;12.35;7.28;;;16.90;99.90;;;;;;7338525;19;107290;-84
2022/07/11 02:50:37;;;;;;;9.85;7.47;;;17.00;99.90;;;;;;7341416;19;108263;-85
2022/07/11 02:53:04;;;;;;;11.32;8.57;;;17.00;99.90;;;;;;7341010;19;112454;-84
2022/07/11 02:55:32;;;;;;;18.98;12.55;;;17.00;99.90;;;;;;7337151;19;110428;-84
2022/07/11 02:57:59;;;;;;;24.42;13.43;;;17.10;99.90;;;;;;7338941;19;111550;-80
2022/07/11 03:00:26;;;;;;;24.65;16.75;;;17.10;99.90;;;;;;7331500;19;111466;-80
2022/07/11 03:02:53;;;;;;;26.17;16.50;;;17.20;99.90;;;;;;7335178;19;114062;-80
2022/07/11 03:05:21;;;;;;;32.45;19.02;;;17.20;99.90;;;;;;7333375;19;110516;-80
2022/07/11 03:07:48;;;;;;;26.67;16.73;;;17.20;99.90;;;;;;7337035;19;111875;-81
2022/07/11 03:10:16;;;;;;;27.02;17.60;;;17.20;99.90;;;;;;7335484;19;112154;-80
2022/07/11 03:12:45;;;;;;;29.40;18.17;;;17.30;99.90;;;;;;7337683;19;110360;-80
2022/07/11 03:15:12;;;;;;;28.60;18.05;;;17.30;99.90;;;;;;7333811;19;111486;-80
2022/07/11 03:17:39;;;;;;;26.45;18.55;;;17.30;99.90;;;;;;7335511;19;110706;-80
2022/07/11 03:20:07;;;;;;;29.05;19.33;;;17.30;99.90;;;;;;7343025;19;111318;-80
2022/07/11 03:22:35;;;;;;;33.90;19.98;;;17.30;99.90;;;;;;7339052;19;112221;-80
2022/07/11 03:25:05;;;;;;;24.65;16.98;;;17.20;99.90;;;;;;7335317;19;110005;-81
2022/07/11 03:27:33;;;;;;;28.80;18.50;;;17.20;99.90;;;;;;7334409;19;113159;-80
2022/07/11 03:30:00;;;;;;;28.27;19.15;;;17.20;99.90;;;;;;7336302;19;111748;-80
2022/07/11 03:32:27;;;;;;;30.38;18.08;;;17.10;99.90;;;;;;7337789;19;110827;-80
2022/07/11 03:37:41;;;;;;;22.42;16.50;;;17.20;99.90;;;;;;7336634;19;112217;-80
2022/07/11 03:40:09;;;;;;;29.02;17.45;;;17.10;99.90;;;;;;7340658;19;110077;-80
2022/07/11 03:42:36;;;;;;;28.73;17.27;;;17.20;99.90;;;;;;7330518;19;112163;-80
2022/07/11 03:45:04;;;;;;;24.13;16.63;;;17.20;99.90;;;;;;7336238;19;110285;-80
2022/07/11 03:47:32;;;;;;;30.10;16.13;;;17.20;99.90;;;;;;7335982;19;111550;-80
2022/07/11 03:50:00;;;;;;;28.52;18.13;;;17.30;99.90;;;;;;7335866;19;111844;-80
2022/07/11 03:52:28;;;;;;;29.80;17.48;;;17.30;99.90;;;;;;7337379;19;110866;-80
2022/07/11 03:54:55;;;;;;;28.23;17.23;;;17.30;99.90;;;;;;7335405;19;112633;-80
2022/07/11 03:57:22;;;;;;;22.75;16.85;;;17.30;99.90;;;;;;7337596;19;111755;-80
2022/07/11 03:59:49;;;;;;;30.67;18.60;;;17.30;99.90;;;;;;7334792;19;109905;-80
2022/07/11 04:02:16;;;;;;;35.60;19.48;;;17.20;99.90;;;;;;7342916;19;112160;-80
2022/07/11 04:04:43;;;;;;;31.90;18.50;;;17.10;99.90;;;;;;7335665;19;111179;-79
2022/07/11 04:07:10;;;;;;;34.60;19.80;;;17.10;99.90;;;;;;7335238;19;111077;-80
2022/07/11 04:09:38;;;;;;;34.17;21.52;;;17.00;99.90;;;;;;7334375;19;111605;-80
2022/07/11 04:12:05;;;;;;;30.70;20.48;;;16.90;99.90;;;;;;7335765;19;109915;-80
2022/07/11 04:14:32;;;;;;;35.80;20.42;;;16.90;99.90;;;;;;7336240;19;111648;-80
2022/07/11 04:16:59;;;;;;;32.33;20.80;;;16.90;99.90;;;;;;7337189;19;114866;-81
2022/07/11 04:19:26;;;;;;;33.83;20.95;;;16.90;99.90;;;;;;7334935;19;110816;-79
2022/07/11 04:21:54;;;;;;;29.65;19.17;;;17.00;99.90;;;;;;7336724;19;111537;-81
2022/07/11 04:24:21;;;;;;;28.83;20.08;;;17.00;99.90;;;;;;7340640;19;111268;-79
2022/07/11 04:26:48;;;;;;;30.33;19.73;;;17.10;99.90;;;;;;7336607;19;112295;-80
2022/07/11 04:29:15;;;;;;;31.02;19.45;;;17.10;99.90;;;;;;7336386;19;111786;-80
2022/07/11 04:31:42;;;;;;;30.58;19.05;;;17.10;99.90;;;;;;7335806;19;110151;-80
2022/07/11 04:34:09;;;;;;;33.40;18.85;;;17.10;99.90;;;;;;7333301;19;111444;-79
2022/07/11 04:36:36;;;;;;;27.27;18.20;;;17.20;99.90;;;;;;7335910;19;114006;-80
2022/07/11 04:39:03;;;;;;;35.45;18.65;;;17.30;99.90;;;;;;7335874;19;110417;-80
2022/07/11 04:41:30;;;;;;;26.30;17.23;;;17.40;99.90;;;;;;7340915;19;111651;-80
2022/07/11 04:43:57;;;;;;;25.10;15.73;;;17.40;99.90;;;;;;7342709;19;112575;-79
2022/07/11 04:46:24;;;;;;;23.83;16.42;;;17.50;99.90;;;;;;7348982;19;110844;-80
2022/07/11 04:48:52;;;;;;;25.13;16.08;;;17.60;99.90;;;;;;7343193;19;111940;-80
2022/07/11 04:51:19;;;;;;;23.50;15.05;;;17.60;99.90;;;;;;7341184;19;110776;-80
2022/07/11 04:53:46;;;;;;;22.95;15.35;;;17.80;99.90;;;;;;7342171;19;110876;-80
2022/07/11 04:56:14;;;;;;;25.58;15.43;;;17.80;99.90;;;;;;7340543;19;113255;-80
2022/07/11 04:58:41;;;;;;;27.17;16.45;;;17.90;99.90;;;;;;7340441;19;110239;-80
2022/07/11 05:01:08;;;;;;;30.80;15.40;;;18.00;99.90;;;;;;7340710;19;111865;-81
2022/07/11 05:03:36;;;;;;;26.83;15.68;;;17.90;99.90;;;;;;7340448;19;110886;-81
2022/07/11 05:06:04;;;;;;;31.13;15.75;;;17.80;99.90;;;;;;7342298;19;110749;-81
2022/07/11 05:08:36;;;;;;;34.92;16.15;;;17.80;99.90;;;;;;7347187;19;110518;-81
2022/07/11 05:11:04;;;;;;;26.30;13.65;;;17.80;99.90;;;;;;7343083;19;110128;-81
2022/07/11 05:13:32;;;;;;;29.80;14.77;;;17.90;99.90;;;;;;7342457;19;111613;-81
2022/07/11 05:15:59;;;;;;;26.50;15.00;;;17.90;99.90;;;;;;7339364;19;111551;-81
2022/07/11 05:18:26;;;;;;;23.75;13.00;;;17.80;99.90;;;;;;7340642;19;110726;-81
2022/07/11 05:20:53;;;;;;;29.23;12.90;;;17.80;99.90;;;;;;7341272;19;112078;-81
2022/07/11 05:23:20;;;;;;;26.33;13.95;;;17.80;99.90;;;;;;7342703;19;112041;-81
2022/07/11 05:25:47;;;;;;;22.00;12.35;;;17.90;99.90;;;;;;7341719;19;110110;-81
2022/07/11 05:28:14;;;;;;;24.10;11.65;;;17.90;99.90;;;;;;7341942;19;115496;-81
2022/07/11 05:30:42;;;;;;;19.40;11.70;;;17.80;99.90;;;;;;7346259;19;112399;-82
2022/07/11 05:33:09;;;;;;;20.92;12.45;;;17.80;99.90;;;;;;7340776;19;114591;-82
2022/07/11 05:35:36;;;;;;;22.67;13.55;;;17.80;99.90;;;;;;7337961;19;111146;-83
2022/07/11 05:38:03;;;;;;;22.73;13.35;;;17.80;99.90;;;;;;7339757;19;110142;-82
2022/07/11 05:40:31;;;;;;;22.02;13.85;;;17.90;99.90;;;;;;7338852;19;112113;-81
2022/07/11 05:42:58;;;;;;;28.83;13.30;;;18.00;99.90;;;;;;7340809;19;113222;-81
2022/07/11 05:45:25;;;;;;;21.63;13.05;;;18.10;99.90;;;;;;7339149;19;111057;-82
2022/07/11 05:47:52;;;;;;;22.60;13.43;;;18.30;99.90;;;;;;7342367;19;112783;-86
2022/07/11 05:50:19;;;;;;;25.65;15.02;;;18.40;99.90;;;;;;7344144;19;113979;-86
2022/07/11 05:52:46;;;;;;;22.65;14.05;;;18.50;99.90;;;;;;7341102;19;114526;-86
2022/07/11 05:55:13;;;;;;;25.65;14.25;;;18.50;99.90;;;;;;7336376;19;111787;-87
2022/07/11 05:57:45;;;;;;;20.83;13.45;;;18.40;99.90;;;;;;7340749;19;110727;-81
2022/07/11 06:00:13;;;;;;;22.65;14.38;;;18.30;99.90;;;;;;7339585;19;111691;-81
2022/07/11 06:02:42;;;;;;;23.67;13.80;;;18.40;99.90;;;;;;7338721;19;110218;-81
2022/07/11 06:05:11;;;;;;;17.17;12.38;;;18.60;99.90;;;;;;7338952;19;112063;-81
2022/07/11 06:10:27;;;;;;;;;;;18.90;99.90;;;;;;7340678;19;111200;-80
2022/07/11 06:12:55;;;;;;;20.60;12.20;;;19.00;99.90;;;;;;7353431;19;109483;-80
2022/07/11 06:15:22;;;;;;;19.85;12.50;;;19.10;99.90;;;;;;7337134;19;112121;-81
2022/07/11 06:17:49;;;;;;;18.08;11.23;;;19.20;99.90;;;;;;7340588;19;110268;-80
2022/07/11 06:20:16;;;;;;;21.38;12.15;;;19.20;99.90;;;;;;7341609;19;111846;-81
2022/07/11 06:22:44;;;;;;;20.52;11.60;;;19.20;99.90;;;;;;7342023;19;111706;-80
2022/07/11 06:25:11;;;;;;;19.25;11.50;;;19.30;99.90;;;;;;7340887;19;110393;-81
2022/07/11 06:27:38;;;;;;;21.38;10.48;;;19.40;99.90;;;;;;7341895;19;111824;-81
2022/07/11 06:30:06;;;;;;;16.90;11.80;;;19.30;99.90;;;;;;7340580;19;112018;-81
2022/07/11 06:32:33;;;;;;;16.17;11.55;;;19.10;99.90;;;;;;7340858;19;110441;-81
2022/07/11 06:35:00;;;;;;;20.85;12.68;;;19.10;99.90;;;;;;7343585;19;114553;-80
2022/07/11 06:37:27;;;;;;;26.15;11.30;;;19.10;99.90;;;;;;7340515;19;110089;-80
2022/07/11 06:39:54;;;;;;;19.20;12.40;;;19.10;99.90;;;;;;7338567;19;111310;-81
2022/07/11 06:42:21;;;;;;;21.77;12.15;;;19.20;99.90;;;;;;7336687;19;111901;-81
2022/07/11 06:44:52;;;;;;;20.20;13.23;;;19.20;99.90;;;;;;7340191;19;109917;-81
2022/07/11 06:47:19;;;;;;;24.05;12.90;;;19.30;99.90;;;;;;7340527;19;111387;-81
2022/07/11 06:49:46;;;;;;;21.60;13.00;;;19.30;99.90;;;;;;7339743;19;113870;-81
2022/07/11 06:52:14;;;;;;;21.20;12.43;;;19.30;99.90;;;;;;7340203;19;110330;-80
2022/07/11 06:54:41;;;;;;;18.85;11.82;;;19.30;99.90;;;;;;7338441;19;111133;-80
2022/07/11 06:57:08;;;;;;;17.92;11.40;;;19.30;99.90;;;;;;7344869;19;112862;-80
2022/07/11 06:59:39;;;;;;;20.38;12.15;;;19.30;99.90;;;;;;7334578;19;111483;-81
2022/07/11 07:02:06;;;;;;;18.85;11.77;;;19.40;99.90;;;;;;7335189;19;111027;-81
2022/07/11 07:04:34;;;;;;;19.02;11.10;;;19.40;99.90;;;;;;7338510;19;110120;-81
2022/07/11 07:07:01;;;;;;;20.63;11.27;;;19.30;99.90;;;;;;7337403;19;110846;-81
2022/07/11 07:09:29;;;;;;;16.23;10.00;;;19.40;99.90;;;;;;7337874;19;111085;-81
2022/07/11 07:11:57;;;;;;;15.57;10.40;;;19.30;99.90;;;;;;7340130;19;109847;-80
2022/07/11 07:14:24;;;;;;;21.27;13.32;;;19.30;99.90;;;;;;7339064;19;111712;-81
2022/07/11 07:16:51;;;;;;;18.98;13.30;;;19.30;99.90;;;;;;7338550;19;110684;-80
2022/07/11 07:19:18;;;;;;;15.65;12.95;;;19.40;99.90;;;;;;7345243;19;110661;-81
2022/07/11 07:21:46;;;;;;;18.13;12.75;;;19.50;99.90;;;;;;7337817;19;113234;-80
2022/07/11 07:24:13;;;;;;;17.27;12.55;;;19.60;99.90;;;;;;7339123;19;110308;-80
2022/07/11 07:26:44;;;;;;;20.90;12.10;;;19.70;99.90;;;;;;7338758;19;111503;-81
2022/07/11 07:29:11;;;;;;;16.30;13.05;;;19.70;99.90;;;;;;7337516;19;112131;-81
2022/07/11 07:31:38;;;;;;;16.60;13.32;;;19.60;99.90;;;;;;7339896;19;111168;-81
2022/07/11 07:34:06;;;;;;;22.15;15.25;;;19.70;99.90;;;;;;7339655;19;111797;-80
2022/07/11 07:36:33;;;;;;;19.00;15.40;;;19.70;99.90;;;;;;7336316;19;113234;-81
2022/07/11 07:39:00;;;;;;;26.35;18.65;;;19.70;99.90;;;;;;7338549;19;110844;-81
2022/07/11 07:41:27;;;;;;;24.10;15.95;;;19.80;99.90;;;;;;7341637;19;110643;-80
2022/07/11 07:43:54;;;;;;;24.67;17.00;;;20.00;99.90;;;;;;7338807;19;111885;-80
2022/07/11 07:46:22;;;;;;;24.55;17.23;;;20.10;99.90;;;;;;7338349;19;111515;-81
2022/07/11 07:48:49;;;;;;;22.73;16.85;;;20.00;99.90;;;;;;7336981;19;111300;-81
2022/07/11 07:51:16;;;;;;;19.13;14.32;;;19.90;99.90;;;;;;7338193;19;110212;-81
2022/07/11 07:53:43;;;;;;;21.85;14.95;;;19.90;99.90;;;;;;7337306;19;111109;-81
2022/07/11 07:56:10;;;;;;;27.13;15.73;;;20.00;99.90;;;;;;7335489;19;111483;-81
2022/07/11 07:58:38;;;;;;;23.02;16.45;;;20.10;99.90;;;;;;7334482;19;110698;-81
2022/07/11 08:03:53;;;;;;;18.15;15.30;;;20.30;99.90;;;;;;7334946;19;110353;-81
2022/07/11 08:06:20;;;;;;;16.42;14.10;;;20.30;99.90;;;;;;7336112;19;111612;-81
2022/07/11 08:08:49;;;;;;;20.27;14.60;;;20.30;99.90;;;;;;7337321;19;114815;-81
2022/07/11 08:11:16;;;;;;;18.45;14.85;;;20.30;99.90;;;;;;7338271;19;110166;-81
2022/07/11 08:13:59;;;;;;;18.77;14.07;;;20.20;99.90;;;;;;7336808;19;113802;-81
2022/07/11 08:16:30;;;;;;;23.02;16.00;;;20.20;99.90;;;;;;7333812;19;111002;-81
2022/07/11 08:19:03;;;;;;;18.73;14.30;;;20.20;99.90;;;;;;7337097;19;112034;-81
2022/07/11 08:21:31;;;;;;;21.92;15.13;;;20.30;99.90;;;;;;7335303;19;111486;-81
2022/07/11 08:23:59;;;;;;;21.75;13.52;;;20.40;99.90;;;;;;7342383;19;112489;-81
2022/07/11 08:26:27;;;;;;;16.50;11.90;;;20.30;99.90;;;;;;7335617;19;113225;-81
2022/07/11 08:29:01;;;;;;;17.75;12.35;;;20.30;99.90;;;;;;7337582;19;112009;-81
2022/07/11 08:31:29;;;;;;;19.38;13.48;;;20.00;99.90;;;;;;7335525;19;109877;-81
2022/07/11 08:33:58;;;;;;;111.55;65.68;;;19.90;99.90;;;;;;7335437;19;112045;-81
2022/07/11 08:36:25;;;;;;;26.75;19.45;;;19.80;99.90;;;;;;7333191;19;112686;-81
2022/07/11 08:38:52;;;;;;;19.35;13.70;;;19.90;99.90;;;;;;7335004;19;110672;-81
2022/07/11 08:41:19;;;;;;;14.43;11.65;;;20.00;99.90;;;;;;7336660;19;110363;-81
2022/07/11 08:43:47;;;;;;;17.25;12.40;;;20.20;99.90;;;;;;7336888;19;112181;-81
2022/07/11 08:46:14;;;;;;;14.48;11.98;;;20.20;99.90;;;;;;7342243;19;110204;-81
2022/07/11 08:48:42;;;;;;;18.42;12.02;;;20.30;99.90;;;;;;7337288;19;111892;-81
2022/07/11 08:51:10;;;;;;;18.23;11.68;;;20.30;99.90;;;;;;7334683;19;112939;-81
2022/07/11 08:53:43;;;;;;;12.15;10.52;;;20.40;99.90;;;;;;7335297;19;114636;-81
2022/07/11 08:56:17;;;;;;;14.50;10.82;;;20.50;99.90;;;;;;7333619;19;112078;-81
2022/07/11 08:58:46;;;;;;;19.95;15.02;;;20.50;99.90;;;;;;7334346;19;109854;-81
2022/07/11 09:01:33;;;;;;;14.13;9.85;;;20.60;99.90;;;;;;7336000;19;112347;-81
2022/07/11 09:04:01;;;;;;;12.90;10.20;;;20.70;99.90;;;;;;7339834;19;107689;-81
2022/07/11 09:06:29;;;;;;;12.63;9.82;;;20.70;99.90;;;;;;7336090;19;109933;-81
2022/07/11 09:09:00;;;;;;;18.25;12.43;;;20.60;99.90;;;;;;7343743;19;111464;-81
2022/07/11 09:11:28;;;;;;;12.65;8.50;;;20.60;99.90;;;;;;7334123;19;110414;-81
2022/07/11 09:13:56;;;;;;;10.65;8.65;;;20.70;99.90;;;;;;7339262;19;111505;-82
2022/07/11 09:16:28;;;;;;;9.35;8.23;;;20.80;99.90;;;;;;7337564;19;107929;-81
2022/07/11 09:18:59;;;;;;;9.50;8.40;;;21.00;99.90;;;;;;7338705;19;108249;-81
2022/07/11 09:26:57;;;;;;;10.77;9.68;;;21.20;99.90;;;;;;7344337;19;107936;-81
2022/07/11 09:29:25;;;;;;;12.98;10.40;;;21.30;99.90;;;;;;7345005;19;108239;-81
2022/07/11 09:31:52;;;;;;;10.48;8.55;;;21.20;99.90;;;;;;7347482;19;110748;-81
2022/07/11 09:34:26;;;;;;;10.07;8.55;;;21.20;99.90;;;;;;7343934;19;111753;-81
2022/07/11 09:36:55;;;;;;;8.98;8.05;;;21.40;99.90;;;;;;7343998;19;109901;-81
2022/07/11 09:39:26;;;;;;;11.52;8.70;;;21.50;99.90;;;;;;7344301;19;107951;-82
2022/07/11 09:41:54;;;;;;;10.48;7.72;;;21.80;99.90;;;;;;7345626;19;108264;-81
2022/07/11 09:44:27;;;;;;;9.60;8.55;;;21.90;99.90;;;;;;7344870;19;108902;-82
2022/07/11 09:46:56;;;;;;;13.25;9.55;;;21.90;99.90;;;;;;7345428;19;109222;-81
2022/07/11 09:49:35;;;;;;;10.32;9.27;;;21.70;99.90;;;;;;7345669;19;107466;-81
2022/07/11 09:52:16;;;;;;;10.80;9.70;;;21.80;99.90;;;;;;7349452;19;107628;-82
2022/07/11 09:54:56;;;;;;;13.30;9.20;;;21.70;99.90;;;;;;7343828;19;107220;-81
2022/07/11 09:57:33;;;;;;;9.93;8.93;;;21.90;99.90;;;;;;7341326;19;107871;-82
2022/07/11 10:00:06;;;;;;;13.88;9.95;;;22.00;99.90;;;;;;7344635;19;107923;-82
2022/07/11 10:02:33;;;;;;;12.35;9.77;;;22.00;99.90;;;;;;7343772;19;109298;-82
2022/07/11 10:05:02;;;;;;;11.02;9.45;;;21.90;99.90;;;;;;7344437;19;107599;-82
2022/07/11 10:07:30;;;;;;;15.77;9.70;;;21.90;99.90;;;;;;7339062;19;108174;-82
2022/07/11 10:10:04;;;;;;;13.18;10.00;;;21.90;99.90;;;;;;7343814;19;108193;-81
2022/07/11 10:12:32;;;;;;;11.75;10.55;;;22.10;99.90;;;;;;7340922;19;111902;-81
2022/07/11 10:15:10;;;;;;;11.98;10.20;;;21.90;99.90;;;;;;7346625;19;111564;-81
2022/07/11 10:18:02;;;;;;;11.15;10.02;;;21.90;99.90;;;;;;7338875;19;111734;-81
2022/07/11 10:20:33;;;;;;;14.30;10.60;;;21.90;99.90;;;;;;7340263;19;112570;-81
2022/07/11 10:23:25;;;;;;;12.20;10.32;;;21.90;99.90;;;;;;7340693;19;112453;-81
2022/07/11 10:26:07;;;;;;;12.57;10.07;;;22.00;99.90;;;;;;7340583;19;112516;-81
2022/07/11 10:28:42;;;;;;;14.63;10.65;;;22.00;99.90;;;;;;7338610;19;110102;-81
2022/07/11 10:31:27;;;;;;;13.45;10.90;;;22.10;99.90;;;;;;7340752;19;111983;-81
2022/07/11 10:34:18;;;;;;;17.88;12.05;;;22.20;99.90;;;;;;7339581;19;113866;-81
2022/07/11 10:36:46;;;;;;;15.90;11.23;;;22.20;99.90;;;;;;7338134;19;110154;-81
2022/07/11 10:39:27;;;;;;;18.75;11.98;;;22.30;99.90;;;;;;7343145;19;111472;-81
2022/07/11 10:41:56;;;;;;;14.35;11.30;;;22.50;99.90;;;;;;7337479;19;110283;-81
2022/07/11 10:44:24;;;;;;;13.55;10.15;;;22.70;99.90;;;;;;7339466;19;110442;-81
2022/07/11 10:46:52;;;;;;;13.70;10.68;;;22.90;99.90;;;;;;7338837;19;113602;-82
2022/07/11 10:49:40;;;;;;;13.73;10.07;;;23.10;99.90;;;;;;7337086;19;111330;-82
2022/07/11 10:52:08;;;;;;;12.43;9.93;;;23.20;99.90;;;;;;7339206;19;112442;-82
2022/07/11 10:54:46;;;;;;;10.68;9.13;;;23.30;99.90;;;;;;7343389;19;108609;-82
2022/07/11 10:57:16;;;;;;;11.35;9.52;;;23.40;99.90;;;;;;7339235;19;111189;-82
2022/07/11 11:00:03;;;;;;;19.52;10.52;;;23.40;99.90;;;;;;7340790;19;107518;-82
2022/07/11 11:02:32;;;;;;;14.55;11.15;;;23.40;99.90;;;;;;7344513;19;114785;-81
2022/07/11 11:05:01;;;;;;;13.52;9.50;;;23.50;99.90;;;;;;7339339;19;111460;-81
2022/07/11 11:07:43;;;;;;;11.18;8.57;;;23.60;99.90;;;;;;7341224;19;108541;-82
2022/07/11 11:10:38;;;;;;;9.70;8.63;;;23.80;99.90;;;;;;7340848;19;112994;-82
2022/07/11 11:13:14;;;;;;;10.50;9.43;;;23.90;99.90;;;;;;7341461;19;108296;-81
2022/07/11 11:15:41;;;;;;;11.18;8.25;;;23.90;99.90;;;;;;7342736;19;109809;-81
2022/07/11 11:18:25;;;;;;;15.63;8.75;;;24.00;99.90;;;;;;7339728;19;108144;-82
2022/07/11 11:20:59;;;;;;;14.77;8.50;;;24.40;99.90;;;;;;7340751;19;109564;-82
2022/07/11 11:23:28;;;;;;;9.63;7.10;;;24.40;99.90;;;;;;7339024;19;108232;-81
2022/07/11 11:26:14;;;;;;;13.77;7.47;;;24.40;99.90;;;;;;7346078;19;109375;-81
2022/07/11 11:29:11;;;;;;;10.25;7.57;;;24.40;99.90;;;;;;7340536;19;108307;-82
2022/07/11 11:31:38;;;;;;;11.82;7.10;;;24.60;99.90;;;;;;7338289;19;108927;-82
2022/07/11 11:34:05;;;;;;;10.57;6.65;;;24.60;99.90;;;;;;7336981;19;107702;-83
2022/07/11 11:36:32;;;;;;;13.98;7.10;;;24.80;99.90;;;;;;7339683;19;107482;-82
2022/07/11 11:38:59;;;;;;;8.75;6.82;;;24.70;99.90;;;;;;7339624;19;108192;-83
2022/07/11 11:41:27;;;;;;;8.68;6.28;;;24.90;99.90;;;;;;7340987;19;107979;-83
2022/07/11 11:43:56;;;;;;;8.82;7.18;;;25.10;99.90;;;;;;7339218;19;111156;-84
2022/07/11 11:46:27;;;;;;;7.00;6.30;;;25.30;99.90;;;;;;7340830;19;109140;-83
2022/07/11 11:48:59;;;;;;;6.97;4.97;;;25.70;99.90;;;;;;7346123;19;107823;-83
2022/07/11 11:51:27;;;;;;;7.13;6.43;;;25.90;99.90;;;;;;7341664;19;108992;-83
2022/07/11 11:54:01;;;;;;;5.97;4.88;;;25.80;99.70;;;;;;7337869;19;108475;-83
2022/07/11 11:56:36;;;;;;;6.88;6.18;;;25.70;99.90;;;;;;7339538;19;107415;-83
2022/07/11 11:59:12;;;;;;;6.50;5.35;;;25.80;99.90;;;;;;7336609;19;111959;-83
2022/07/11 12:01:48;;;;;;;6.50;5.80;;;25.80;99.90;;;;;;7341790;19;107405;-83
2022/07/11 12:04:16;;;;;;;7.22;6.53;;;26.00;99.70;;;;;;7340298;19;108247;-84
2022/07/11 12:06:50;;;;;;;30.02;6.28;;;26.00;99.60;;;;;;7338850;19;109542;-83
2022/07/11 12:14:54;;;;;;;8.57;5.97;;;25.90;99.80;;;;;;7341303;19;108132;-83
2022/07/11 12:17:29;;;;;;;7.47;6.20;;;25.80;99.90;;;;;;7339650;19;109428;-83
2022/07/11 12:19:56;;;;;;;9.40;5.78;;;25.70;99.40;;;;;;7333293;19;109403;-82
2022/07/11 12:22:25;;;;;;;8.70;5.97;;;25.50;99.90;;;;;;7334355;19;107986;-81
2022/07/11 12:24:53;;;;;;;10.85;5.93;;;25.60;99.70;;;;;;7338418;19;107508;-82
2022/07/11 12:27:25;;;;;;;8.10;5.63;;;25.50;99.80;;;;;;7337846;19;109709;-82
2022/07/11 12:29:52;;;;;;;8.13;6.18;;;25.70;99.90;;;;;;7338928;19;109816;-82
2022/07/11 12:32:24;;;;;;;9.02;5.53;;;25.60;99.80;;;;;;7342040;19;107931;-82
2022/07/11 12:34:51;;;;;;;6.03;5.53;;;25.60;99.90;;;;;;7337644;19;108498;-82
2022/07/11 12:37:35;;;;;;;9.15;5.93;;;25.70;99.90;;;;;;7336760;19;108891;-83
2022/07/11 12:40:06;;;;;;;5.88;5.22;;;25.80;99.60;;;;;;7337843;19;109311;-82
2022/07/11 12:42:46;;;;;;;5.93;5.32;;;25.70;99.80;;;;;;7338648;19;108871;-83
2022/07/11 12:45:15;;;;;;;7.78;5.47;;;25.80;98.80;;;;;;7338303;19;107671;-83
2022/07/11 12:47:52;;;;;;;7.18;5.55;;;25.90;99.30;;;;;;7332654;19;112325;-82
2022/07/11 12:50:24;;;;;;;6.47;5.82;;;26.00;99.00;;;;;;7336815;19;109383;-82
2022/07/11 12:52:57;;;;;;;7.80;5.65;;;26.10;98.10;;;;;;7336849;19;108144;-82
2022/07/11 12:55:35;;;;;;;6.13;4.63;;;26.00;97.90;;;;;;7344231;19;108994;-83